sensor_id;sensor_type;location;lat;lon;timestamp;pressure;altitude;pressure_sealevel;temperature;humidity
74633;BME280;63139;52.018;8.552;2023-03-02T00:00:09;101432.16;;;-2.36;76.34
74633;BME280;63139;52.018;8.552;2023-03-02T00:02:42;101439.03;;;-2.35;76.66
74633;BME280;63139;52.018;8.552;2023-03-02T00:05:10;101438.19;;;-2.35;76.46
74633;BME280;63139;52.018;8.552;2023-03-02T00:07:41;101440.78;;;-2.35;76.02
74633;BME280;63139;52.018;8.552;2023-03-02T00:10:09;101434.69;;;-2.34;76.39
74633;BME280;63139;52.018;8.552;2023-03-02T00:12:38;101438.06;;;-2.32;75.80
74633;BME280;63139;52.018;8.552;2023-03-02T00:15:07;101438.97;;;-2.33;75.88
74633;BME280;63139;52.018;8.552;2023-03-02T00:17:36;101433.78;;;-2.33;76.32
74633;BME280;63139;52.018;8.552;2023-03-02T00:20:05;101434.69;;;-2.34;76.56
74633;BME280;63139;52.018;8.552;2023-03-02T00:22:38;101445.00;;;-2.32;76.23
74633;BME280;63139;52.018;8.552;2023-03-02T00:25:08;101444.22;;;-2.35;75.77
74633;BME280;63139;52.018;8.552;2023-03-02T00:27:36;101439.94;;;-2.36;76.38
74633;BME280;63139;52.018;8.552;2023-03-02T00:30:06;101441.75;;;-2.38;76.15
74633;BME280;63139;52.018;8.552;2023-03-02T00:32:34;101446.09;;;-2.38;76.42
74633;BME280;63139;52.018;8.552;2023-03-02T00:35:03;101448.75;;;-2.40;76.00
74633;BME280;63139;52.018;8.552;2023-03-02T00:37:33;101450.59;;;-2.43;76.40
74633;BME280;63139;52.018;8.552;2023-03-02T00:40:02;101442.19;;;-2.48;75.54
74633;BME280;63139;52.018;8.552;2023-03-02T00:42:33;101449.16;;;-2.50;76.20
74633;BME280;63139;52.018;8.552;2023-03-02T00:45:01;101444.19;;;-2.55;76.79
74633;BME280;63139;52.018;8.552;2023-03-02T00:47:29;101439.91;;;-2.56;76.55
74633;BME280;63139;52.018;8.552;2023-03-02T00:49:57;101435.66;;;-2.58;76.77
74633;BME280;63139;52.018;8.552;2023-03-02T00:52:24;101434.06;;;-2.61;76.94
74633;BME280;63139;52.018;8.552;2023-03-02T00:54:52;101441.03;;;-2.63;77.24
74633;BME280;63139;52.018;8.552;2023-03-02T00:57:20;101439.50;;;-2.67;77.19
74633;BME280;63139;52.018;8.552;2023-03-02T00:59:49;101441.28;;;-2.69;77.54
74633;BME280;63139;52.018;8.552;2023-03-02T01:02:37;101432.72;;;-2.71;77.20
74633;BME280;63139;52.018;8.552;2023-03-02T01:05:12;101430.25;;;-2.74;77.41
74633;BME280;63139;52.018;8.552;2023-03-02T01:07:40;101427.78;;;-2.77;77.41
74633;BME280;63139;52.018;8.552;2023-03-02T01:10:09;101429.53;;;-2.78;77.21
74633;BME280;63139;52.018;8.552;2023-03-02T01:12:38;101425.31;;;-2.80;77.80
74633;BME280;63139;52.018;8.552;2023-03-02T01:15:08;101421.94;;;-2.82;77.35
74633;BME280;63139;52.018;8.552;2023-03-02T01:17:36;101426.19;;;-2.81;77.40
74633;BME280;63139;52.018;8.552;2023-03-02T01:20:06;101422.72;;;-2.80;77.85
74633;BME280;63139;52.018;8.552;2023-03-02T01:22:34;101422.56;;;-2.76;78.42
74633;BME280;63139;52.018;8.552;2023-03-02T01:25:02;101414.69;;;-2.74;77.50
74633;BME280;63139;52.018;8.552;2023-03-02T01:27:31;101408.63;;;-2.73;77.35
74633;BME280;63139;52.018;8.552;2023-03-02T01:29:58;101412.09;;;-2.74;77.51
74633;BME280;63139;52.018;8.552;2023-03-02T01:32:28;101403.44;;;-2.73;77.65
74633;BME280;63139;52.018;8.552;2023-03-02T01:34:55;101402.53;;;-2.72;77.48
74633;BME280;63139;52.018;8.552;2023-03-02T01:37:24;101396.56;;;-2.74;77.37
74633;BME280;63139;52.018;8.552;2023-03-02T01:39:52;101391.56;;;-2.79;77.74
74633;BME280;63139;52.018;8.552;2023-03-02T01:42:20;101397.72;;;-2.81;77.72
74633;BME280;63139;52.018;8.552;2023-03-02T01:44:49;101394.47;;;-2.86;77.52
74633;BME280;63139;52.018;8.552;2023-03-02T01:47:21;101380.88;;;-2.91;78.35
74633;BME280;63139;52.018;8.552;2023-03-02T01:50:03;101386.09;;;-2.93;77.95
74633;BME280;63139;52.018;8.552;2023-03-02T01:52:37;101382.75;;;-2.96;78.22
74633;BME280;63139;52.018;8.552;2023-03-02T01:55:08;101381.09;;;-2.97;78.55
74633;BME280;63139;52.018;8.552;2023-03-02T01:57:42;101386.34;;;-2.99;78.61
74633;BME280;63139;52.018;8.552;2023-03-02T02:00:13;101391.63;;;-3.02;78.60
74633;BME280;63139;52.018;8.552;2023-03-02T02:02:42;101388.28;;;-3.04;78.44
74633;BME280;63139;52.018;8.552;2023-03-02T02:05:14;101398.69;;;-3.05;78.51
74633;BME280;63139;52.018;8.552;2023-03-02T02:07:45;101391.06;;;-3.10;78.01
74633;BME280;63139;52.018;8.552;2023-03-02T02:10:15;101390.38;;;-3.14;78.53
74633;BME280;63139;52.018;8.552;2023-03-02T02:12:42;101385.28;;;-3.17;77.98
74633;BME280;63139;52.018;8.552;2023-03-02T02:15:10;101386.31;;;-3.21;78.44
74633;BME280;63139;52.018;8.552;2023-03-02T02:17:39;101384.69;;;-3.23;78.10
74633;BME280;63139;52.018;8.552;2023-03-02T02:20:15;101386.44;;;-3.24;78.65
74633;BME280;63139;52.018;8.552;2023-03-02T02:22:53;101386.56;;;-3.27;78.62
74633;BME280;63139;52.018;8.552;2023-03-02T02:25:36;101382.22;;;-3.26;78.73
74633;BME280;63139;52.018;8.552;2023-03-02T02:28:12;101380.59;;;-3.29;78.68
74633;BME280;63139;52.018;8.552;2023-03-02T02:30:41;101379.75;;;-3.29;78.75
74633;BME280;63139;52.018;8.552;2023-03-02T02:33:13;101376.38;;;-3.31;79.03
74633;BME280;63139;52.018;8.552;2023-03-02T02:35:44;101376.50;;;-3.34;78.92
74633;BME280;63139;52.018;8.552;2023-03-02T02:38:16;101383.47;;;-3.36;78.99
74633;BME280;63139;52.018;8.552;2023-03-02T02:40:49;101381.81;;;-3.39;78.80
74633;BME280;63139;52.018;8.552;2023-03-02T02:43:25;101383.56;;;-3.39;79.12
74633;BME280;63139;52.018;8.552;2023-03-02T02:45:56;101388.88;;;-3.42;79.19
74633;BME280;63139;52.018;8.552;2023-03-02T02:48:26;101386.34;;;-3.44;79.50
74633;BME280;63139;52.018;8.552;2023-03-02T02:50:57;101382.91;;;-3.44;79.18
74633;BME280;63139;52.018;8.552;2023-03-02T02:53:28;101392.47;;;-3.46;80.06
74633;BME280;63139;52.018;8.552;2023-03-02T02:55:57;101389.88;;;-3.46;79.58
74633;BME280;63139;52.018;8.552;2023-03-02T02:58:33;101388.19;;;-3.47;79.46
74633;BME280;63139;52.018;8.552;2023-03-02T03:01:02;101384.84;;;-3.49;79.47
74633;BME280;63139;52.018;8.552;2023-03-02T03:03:36;101383.19;;;-3.52;79.53
74633;BME280;63139;52.018;8.552;2023-03-02T03:06:13;101379.75;;;-3.53;80.20
74633;BME280;63139;52.018;8.552;2023-03-02T03:11:35;101373.06;;;-3.58;79.56
74633;BME280;63139;52.018;8.552;2023-03-02T03:14:07;101374.91;;;-3.62;80.13
74633;BME280;63139;52.018;8.552;2023-03-02T03:16:38;101374.06;;;-3.62;80.16
74633;BME280;63139;52.018;8.552;2023-03-02T03:19:11;101378.47;;;-3.64;80.18
74633;BME280;63139;52.018;8.552;2023-03-02T03:21:41;101368.19;;;-3.66;80.48
74633;BME280;63139;52.018;8.552;2023-03-02T03:24:09;101369.13;;;-3.68;80.19
74633;BME280;63139;52.018;8.552;2023-03-02T03:26:37;101364.00;;;-3.70;80.27
74633;BME280;63139;52.018;8.552;2023-03-02T03:29:07;101358.06;;;-3.72;80.32
74633;BME280;63139;52.018;8.552;2023-03-02T03:31:35;101363.31;;;-3.75;80.40
74633;BME280;63139;52.018;8.552;2023-03-02T03:34:04;101364.28;;;-3.77;80.41
74633;BME280;63139;52.018;8.552;2023-03-02T03:36:35;101364.34;;;-3.79;80.32
74633;BME280;63139;52.018;8.552;2023-03-02T03:39:04;101362.72;;;-3.81;80.20
74633;BME280;63139;52.018;8.552;2023-03-02T03:41:32;101358.56;;;-3.85;80.51
74633;BME280;63139;52.018;8.552;2023-03-02T03:44:00;101356.03;;;-3.87;80.26
74633;BME280;63139;52.018;8.552;2023-03-02T03:46:32;101367.31;;;-3.89;80.28
74633;BME280;63139;52.018;8.552;2023-03-02T03:49:02;101360.44;;;-3.91;80.52
74633;BME280;63139;52.018;8.552;2023-03-02T03:51:30;101360.50;;;-3.92;80.56
74633;BME280;63139;52.018;8.552;2023-03-02T03:54:03;101359.72;;;-3.94;80.27
74633;BME280;63139;52.018;8.552;2023-03-02T03:56:36;101366.63;;;-3.95;80.66
74633;BME280;63139;52.018;8.552;2023-03-02T03:59:07;101368.44;;;-3.97;80.52
74633;BME280;63139;52.018;8.552;2023-03-02T04:01:44;101369.38;;;-3.99;80.16
74633;BME280;63139;52.018;8.552;2023-03-02T04:04:18;101368.53;;;-4.00;80.67
74633;BME280;63139;52.018;8.552;2023-03-02T04:06:47;101369.31;;;-3.98;81.66
74633;BME280;63139;52.018;8.552;2023-03-02T04:09:16;101377.06;;;-3.98;81.20
74633;BME280;63139;52.018;8.552;2023-03-02T04:11:46;101372.78;;;-3.99;81.31
74633;BME280;63139;52.018;8.552;2023-03-02T04:14:16;101369.38;;;-3.99;81.13
74633;BME280;63139;52.018;8.552;2023-03-02T04:16:45;101367.56;;;-3.97;80.85
74633;BME280;63139;52.018;8.552;2023-03-02T04:19:14;101364.19;;;-3.99;81.25
74633;BME280;63139;52.018;8.552;2023-03-02T04:21:48;101367.63;;;-3.99;81.45
74633;BME280;63139;52.018;8.552;2023-03-02T04:24:18;101364.28;;;-4.01;81.20
74633;BME280;63139;52.018;8.552;2023-03-02T04:26:47;101361.69;;;-4.01;81.13
74633;BME280;63139;52.018;8.552;2023-03-02T04:29:16;101362.59;;;-4.02;81.19
74633;BME280;63139;52.018;8.552;2023-03-02T04:31:46;101353.97;;;-4.02;81.15
74633;BME280;63139;52.018;8.552;2023-03-02T04:34:15;101360.09;;;-4.05;81.11
74633;BME280;63139;52.018;8.552;2023-03-02T04:36:44;101355.81;;;-4.06;80.92
74633;BME280;63139;52.018;8.552;2023-03-02T04:39:15;101353.34;;;-4.09;80.56
74633;BME280;63139;52.018;8.552;2023-03-02T04:41:48;101362.00;;;-4.10;80.47
74633;BME280;63139;52.018;8.552;2023-03-02T04:44:16;101355.13;;;-4.11;80.87
74633;BME280;63139;52.018;8.552;2023-03-02T04:46:46;101351.75;;;-4.13;81.14
74633;BME280;63139;52.018;8.552;2023-03-02T04:49:15;101354.34;;;-4.13;81.10
74633;BME280;63139;52.018;8.552;2023-03-02T04:51:45;101357.81;;;-4.14;81.53
74633;BME280;63139;52.018;8.552;2023-03-02T04:54:16;101361.28;;;-4.15;81.36
74633;BME280;63139;52.018;8.552;2023-03-02T04:56:44;101354.38;;;-4.14;81.25
74633;BME280;63139;52.018;8.552;2023-03-02T04:59:14;101362.22;;;-4.16;81.61
74633;BME280;63139;52.018;8.552;2023-03-02T05:01:42;101357.06;;;-4.16;81.87
74633;BME280;63139;52.018;8.552;2023-03-02T05:04:12;101361.28;;;-4.15;81.49
74633;BME280;63139;52.018;8.552;2023-03-02T05:06:40;101357.91;;;-4.15;81.73
74633;BME280;63139;52.018;8.552;2023-03-02T05:09:07;101354.56;;;-4.19;81.36
74633;BME280;63139;52.018;8.552;2023-03-02T05:11:36;101359.78;;;-4.20;81.63
74633;BME280;63139;52.018;8.552;2023-03-02T05:14:06;101362.41;;;-4.22;81.63
74633;BME280;63139;52.018;8.552;2023-03-02T05:16:36;101356.34;;;-4.21;82.17
74633;BME280;63139;52.018;8.552;2023-03-02T05:19:07;101360.63;;;-4.20;82.27
74633;BME280;63139;52.018;8.552;2023-03-02T05:21:36;101352.81;;;-4.18;82.50
74633;BME280;63139;52.018;8.552;2023-03-02T05:24:05;101355.44;;;-4.20;82.20
74633;BME280;63139;52.018;8.552;2023-03-02T05:26:33;101358.03;;;-4.20;82.49
74633;BME280;63139;52.018;8.552;2023-03-02T05:29:01;101356.31;;;-4.19;82.15
74633;BME280;63139;52.018;8.552;2023-03-02T05:31:32;101358.94;;;-4.21;81.89
74633;BME280;63139;52.018;8.552;2023-03-02T05:34:01;101353.00;;;-4.23;82.41
74633;BME280;63139;52.018;8.552;2023-03-02T05:36:29;101350.31;;;-4.21;82.28
74633;BME280;63139;52.018;8.552;2023-03-02T05:38:58;101359.00;;;-4.22;82.37
74633;BME280;63139;52.018;8.552;2023-03-02T05:41:26;101365.91;;;-4.23;82.12
74633;BME280;63139;52.018;8.552;2023-03-02T05:43:54;101359.06;;;-4.24;82.00
74633;BME280;63139;52.018;8.552;2023-03-02T05:46:22;101356.56;;;-4.27;81.97
74633;BME280;63139;52.018;8.552;2023-03-02T05:48:50;101352.28;;;-4.28;82.06
74633;BME280;63139;52.018;8.552;2023-03-02T05:51:18;101358.34;;;-4.29;82.40
74633;BME280;63139;52.018;8.552;2023-03-02T05:53:46;101355.84;;;-4.31;82.09
74633;BME280;63139;52.018;8.552;2023-03-02T05:56:15;101356.78;;;-4.33;82.21
74633;BME280;63139;52.018;8.552;2023-03-02T05:58:43;101358.47;;;-4.32;82.54
74633;BME280;63139;52.018;8.552;2023-03-02T06:01:11;101366.22;;;-4.32;82.77
74633;BME280;63139;52.018;8.552;2023-03-02T06:03:41;101371.38;;;-4.32;82.74
74633;BME280;63139;52.018;8.552;2023-03-02T06:06:09;101377.44;;;-4.33;82.21
74633;BME280;63139;52.018;8.552;2023-03-02T06:08:40;101372.22;;;-4.32;82.41
74633;BME280;63139;52.018;8.552;2023-03-02T06:11:08;101373.16;;;-4.34;82.41
74633;BME280;63139;52.018;8.552;2023-03-02T06:13:38;101378.34;;;-4.34;82.43
74633;BME280;63139;52.018;8.552;2023-03-02T06:16:06;101377.44;;;-4.33;82.40
74633;BME280;63139;52.018;8.552;2023-03-02T06:18:34;101388.59;;;-4.31;82.36
74633;BME280;63139;52.018;8.552;2023-03-02T06:21:06;101379.88;;;-4.28;82.56
74633;BME280;63139;52.018;8.552;2023-03-02T06:23:34;101374.66;;;-4.27;82.29
74633;BME280;63139;52.018;8.552;2023-03-02T06:26:06;101385.75;;;-4.23;82.43
74633;BME280;63139;52.018;8.552;2023-03-02T06:28:34;101382.16;;;-4.19;82.44
74633;BME280;63139;52.018;8.552;2023-03-02T06:31:18;101379.38;;;-4.15;82.38
74633;BME280;63139;52.018;8.552;2023-03-02T06:33:46;101386.16;;;-4.11;82.01
74633;BME280;63139;52.018;8.552;2023-03-02T06:36:14;101384.28;;;-4.07;82.46
74633;BME280;63139;52.018;8.552;2023-03-02T06:38:42;101389.31;;;-4.03;82.61
74633;BME280;63139;52.018;8.552;2023-03-02T06:41:10;101395.13;;;-3.96;82.50
74633;BME280;63139;52.018;8.552;2023-03-02T06:43:38;101403.50;;;-3.89;82.68
74633;BME280;63139;52.018;8.552;2023-03-02T06:46:06;101396.44;;;-3.84;82.75
74633;BME280;63139;52.018;8.552;2023-03-02T06:48:35;101396.28;;;-3.80;82.49
74633;BME280;63139;52.018;8.552;2023-03-02T06:51:03;101403.72;;;-3.71;82.74
74633;BME280;63139;52.018;8.552;2023-03-02T06:53:33;101405.25;;;-3.65;82.25
74633;BME280;63139;52.018;8.552;2023-03-02T06:56:00;101399.88;;;-3.61;82.43
74633;BME280;63139;52.018;8.552;2023-03-02T06:58:28;101402.19;;;-3.53;82.04
74633;BME280;63139;52.018;8.552;2023-03-02T07:00:56;101402.81;;;-3.46;81.90
74633;BME280;63139;52.018;8.552;2023-03-02T07:03:24;101404.34;;;-3.41;82.18
74633;BME280;63139;52.018;8.552;2023-03-02T07:05:53;101406.56;;;-3.32;82.22
74633;BME280;63139;52.018;8.552;2023-03-02T07:08:21;101405.34;;;-3.22;82.60
74633;BME280;63139;52.018;8.552;2023-03-02T07:10:49;101409.94;;;-3.06;83.64
74633;BME280;63139;52.018;8.552;2023-03-02T07:13:17;101406.88;;;-2.94;83.20
74633;BME280;63139;52.018;8.552;2023-03-02T07:15:45;101401.16;;;-2.81;83.61
74633;BME280;63139;52.018;8.552;2023-03-02T07:18:12;101407.47;;;-2.66;83.56
74633;BME280;63139;52.018;8.552;2023-03-02T07:20:40;101414.72;;;-2.52;83.36
74633;BME280;63139;52.018;8.552;2023-03-02T07:23:09;101418.44;;;-2.38;85.06
74633;BME280;63139;52.018;8.552;2023-03-02T07:25:37;101413.53;;;-2.23;83.92
74633;BME280;63139;52.018;8.552;2023-03-02T07:28:05;101406.97;;;-2.12;84.04
74633;BME280;63139;52.018;8.552;2023-03-02T07:30:33;101408.97;;;-1.98;84.38
74633;BME280;63139;52.018;8.552;2023-03-02T07:33:00;101405.78;;;-1.84;84.58
74633;BME280;63139;52.018;8.552;2023-03-02T07:35:28;101400.13;;;-1.74;84.23
74633;BME280;63139;52.018;8.552;2023-03-02T07:37:56;101405.78;;;-1.64;85.18
74633;BME280;63139;52.018;8.552;2023-03-02T07:40:25;101394.91;;;-1.53;84.66
74633;BME280;63139;52.018;8.552;2023-03-02T07:42:53;101392.69;;;-1.42;84.23
74633;BME280;63139;52.018;8.552;2023-03-02T07:45:21;101394.03;;;-1.34;84.22
74633;BME280;63139;52.018;8.552;2023-03-02T07:47:50;101391.81;;;-1.24;84.51
74633;BME280;63139;52.018;8.552;2023-03-02T07:50:18;101394.84;;;-1.14;84.17
74633;BME280;63139;52.018;8.552;2023-03-02T07:52:46;101390.16;;;-1.06;83.69
74633;BME280;63139;52.018;8.552;2023-03-02T07:55:14;101393.16;;;-0.97;83.71
74633;BME280;63139;52.018;8.552;2023-03-02T07:57:43;101391.03;;;-0.89;83.63
74633;BME280;63139;52.018;8.552;2023-03-02T08:00:11;101394.19;;;-0.82;83.12
74633;BME280;63139;52.018;8.552;2023-03-02T08:02:39;101397.34;;;-0.75;83.02
74633;BME280;63139;52.018;8.552;2023-03-02T08:05:08;101391.59;;;-0.65;82.65
74633;BME280;63139;52.018;8.552;2023-03-02T08:07:36;101389.47;;;-0.57;82.79
74633;BME280;63139;52.018;8.552;2023-03-02T08:10:04;101381.25;;;-0.48;82.08
74633;BME280;63139;52.018;8.552;2023-03-02T08:12:32;101380.94;;;-0.42;82.28
74633;BME280;63139;52.018;8.552;2023-03-02T08:15:02;101379.72;;;-0.34;81.43
74633;BME280;63139;52.018;8.552;2023-03-02T08:17:30;101386.34;;;-0.29;81.02
74633;BME280;63139;52.018;8.552;2023-03-02T08:19:58;101393.09;;;-0.25;80.94
74633;BME280;63139;52.018;8.552;2023-03-02T08:22:26;101397.16;;;-0.19;80.63
74633;BME280;63139;52.018;8.552;2023-03-02T08:24:54;101396.09;;;-0.15;80.82
74633;BME280;63139;52.018;8.552;2023-03-02T08:27:21;101395.59;;;-0.06;80.91
74633;BME280;63139;52.018;8.552;2023-03-02T08:29:49;101394.47;;;-0.01;80.20
74633;BME280;63139;52.018;8.552;2023-03-02T08:32:19;101392.47;;;0.05;80.95
74633;BME280;63139;52.018;8.552;2023-03-02T08:34:47;101391.25;;;0.12;80.59
74633;BME280;63139;52.018;8.552;2023-03-02T08:37:17;101390.00;;;0.19;79.97
74633;BME280;63139;52.018;8.552;2023-03-02T08:39:45;101387.06;;;0.25;80.00
74633;BME280;63139;52.018;8.552;2023-03-02T08:42:12;101391.13;;;0.30;79.55
74633;BME280;63139;52.018;8.552;2023-03-02T08:44:40;101389.34;;;0.31;79.16
74633;BME280;63139;52.018;8.552;2023-03-02T08:47:08;101380.31;;;0.38;79.50
74633;BME280;63139;52.018;8.552;2023-03-02T08:49:37;101380.75;;;0.46;79.14
74633;BME280;63139;52.018;8.552;2023-03-02T08:52:05;101372.59;;;0.52;79.40
74633;BME280;63139;52.018;8.552;2023-03-02T08:54:33;101365.47;;;0.56;79.17
74633;BME280;63139;52.018;8.552;2023-03-02T08:57:01;101355.56;;;0.62;79.28
74633;BME280;63139;52.018;8.552;2023-03-02T08:59:29;101369.16;;;0.67;78.50
74633;BME280;63139;52.018;8.552;2023-03-02T09:01:58;101360.28;;;0.71;78.75
74633;BME280;63139;52.018;8.552;2023-03-02T09:04:25;101362.63;;;0.76;78.13
74633;BME280;63139;52.018;8.552;2023-03-02T09:06:55;101362.28;;;0.82;78.21
74633;BME280;63139;52.018;8.552;2023-03-02T09:09:23;101362.81;;;0.89;78.10
74633;BME280;63139;52.018;8.552;2023-03-02T09:11:50;101361.69;;;0.93;78.50
74633;BME280;63139;52.018;8.552;2023-03-02T09:14:18;101364.88;;;0.98;79.16
74633;BME280;63139;52.018;8.552;2023-03-02T09:16:46;101374.81;;;1.07;78.29
74633;BME280;63139;52.018;8.552;2023-03-02T09:19:14;101364.38;;;1.07;78.52
74633;BME280;63139;52.018;8.552;2023-03-02T09:21:42;101363.03;;;1.15;78.25
74633;BME280;63139;52.018;8.552;2023-03-02T09:24:11;101370.50;;;1.22;77.88
74633;BME280;63139;52.018;8.552;2023-03-02T09:26:39;101362.41;;;1.26;77.57
74633;BME280;63139;52.018;8.552;2023-03-02T09:29:07;101365.63;;;1.31;77.64
74633;BME280;63139;52.018;8.552;2023-03-02T09:31:35;101366.38;;;1.33;77.51
74633;BME280;63139;52.018;8.552;2023-03-02T09:34:04;101365.19;;;1.39;77.58
74633;BME280;63139;52.018;8.552;2023-03-02T09:36:32;101361.28;;;1.46;77.49
74633;BME280;63139;52.018;8.552;2023-03-02T09:39:00;101364.47;;;1.51;77.42
74633;BME280;63139;52.018;8.552;2023-03-02T09:42:09;101368.69;;;1.53;77.49
74633;BME280;63139;52.018;8.552;2023-03-02T09:44:59;101366.34;;;1.63;76.59
74633;BME280;63139;52.018;8.552;2023-03-02T09:47:35;101370.66;;;1.64;77.00
74633;BME280;63139;52.018;8.552;2023-03-02T09:50:22;101377.09;;;1.73;76.50
74633;BME280;63139;52.018;8.552;2023-03-02T09:53:03;101368.84;;;1.80;76.04
74633;BME280;63139;52.018;8.552;2023-03-02T09:55:36;101368.47;;;1.86;75.72
74633;BME280;63139;52.018;8.552;2023-03-02T09:58:11;101379.22;;;1.96;75.51
74633;BME280;63139;52.018;8.552;2023-03-02T10:00:42;101369.91;;;2.06;75.33
74633;BME280;63139;52.018;8.552;2023-03-02T10:03:15;101367.94;;;2.10;74.70
74633;BME280;63139;52.018;8.552;2023-03-02T10:05:45;101369.34;;;2.15;74.96
74633;BME280;63139;52.018;8.552;2023-03-02T10:08:17;101366.66;;;2.17;74.78
74633;BME280;63139;52.018;8.552;2023-03-02T10:10:53;101364.41;;;2.25;74.30
74633;BME280;63139;52.018;8.552;2023-03-02T10:13:28;101363.56;;;2.39;73.79
74633;BME280;63139;52.018;8.552;2023-03-02T10:16:06;101365.53;;;2.49;73.92
74633;BME280;63139;52.018;8.552;2023-03-02T10:18:42;101361.53;;;2.58;74.10
74633;BME280;63139;52.018;8.552;2023-03-02T10:21:15;101366.28;;;2.65;73.36
74633;BME280;63139;52.018;8.552;2023-03-02T10:23:52;101366.81;;;2.70;73.07
74633;BME280;63139;52.018;8.552;2023-03-02T10:26:28;101363.19;;;2.73;72.48
74633;BME280;63139;52.018;8.552;2023-03-02T10:29:15;101358.94;;;2.85;72.38
74633;BME280;63139;52.018;8.552;2023-03-02T10:31:46;101371.22;;;2.97;72.32
74633;BME280;63139;52.018;8.552;2023-03-02T10:34:18;101365.91;;;2.98;72.05
74633;BME280;63139;52.018;8.552;2023-03-02T10:36:46;101365.41;;;3.06;72.41
74633;BME280;63139;52.018;8.552;2023-03-02T10:39:16;101366.16;;;3.08;72.25
74633;BME280;63139;52.018;8.552;2023-03-02T10:41:47;101361.88;;;3.07;72.36
74633;BME280;63139;52.018;8.552;2023-03-02T10:44:20;101363.69;;;3.19;72.31
74633;BME280;63139;52.018;8.552;2023-03-02T10:46:49;101357.44;;;3.22;72.65
74633;BME280;63139;52.018;8.552;2023-03-02T10:49:24;101360.97;;;3.21;72.12
74633;BME280;63139;52.018;8.552;2023-03-02T10:51:57;101359.53;;;3.29;72.38
74633;BME280;63139;52.018;8.552;2023-03-02T10:54:26;101354.66;;;3.37;72.11
74633;BME280;63139;52.018;8.552;2023-03-02T10:56:57;101356.00;;;3.30;71.40
74633;BME280;63139;52.018;8.552;2023-03-02T10:59:42;101354.56;;;3.39;71.59
74633;BME280;63139;52.018;8.552;2023-03-02T11:02:17;101342.00;;;3.44;71.89
74633;BME280;63139;52.018;8.552;2023-03-02T11:04:49;101356.38;;;3.51;71.17
74633;BME280;63139;52.018;8.552;2023-03-02T11:07:24;101362.44;;;3.51;71.30
74633;BME280;63139;52.018;8.552;2023-03-02T11:10:00;101344.44;;;3.60;71.25
74633;BME280;63139;52.018;8.552;2023-03-02T11:12:29;101340.47;;;3.67;71.45
74633;BME280;63139;52.018;8.552;2023-03-02T11:15:15;101345.53;;;3.70;70.94
74633;BME280;63139;52.018;8.552;2023-03-02T11:17:45;101342.69;;;3.73;71.49
74633;BME280;63139;52.018;8.552;2023-03-02T11:20:19;101344.19;;;3.77;71.20
74633;BME280;63139;52.018;8.552;2023-03-02T11:22:52;101338.41;;;3.84;71.22
74633;BME280;63139;52.018;8.552;2023-03-02T11:25:25;101336.00;;;3.94;71.38
74633;BME280;63139;52.018;8.552;2023-03-02T11:27:59;101318.31;;;3.98;71.09
74633;BME280;63139;52.018;8.552;2023-03-02T11:30:43;101316.00;;;4.06;70.52
74633;BME280;63139;52.018;8.552;2023-03-02T11:33:17;101320.06;;;4.10;70.12
74633;BME280;63139;52.018;8.552;2023-03-02T11:35:51;101315.38;;;4.15;70.03
74633;BME280;63139;52.018;8.552;2023-03-02T11:38:23;101321.13;;;4.20;70.19
74633;BME280;63139;52.018;8.552;2023-03-02T11:40:54;101321.03;;;4.21;70.07
74633;BME280;63139;52.018;8.552;2023-03-02T11:43:23;101315.53;;;4.24;69.89
74633;BME280;63139;52.018;8.552;2023-03-02T11:45:57;101310.22;;;4.26;69.86
74633;BME280;63139;52.018;8.552;2023-03-02T11:48:28;101306.84;;;4.37;70.05
74633;BME280;63139;52.018;8.552;2023-03-02T11:50:59;101303.78;;;4.43;70.03
74633;BME280;63139;52.018;8.552;2023-03-02T11:53:32;101302.63;;;4.47;70.00
74633;BME280;63139;52.018;8.552;2023-03-02T11:56:04;101298.22;;;4.47;69.49
74633;BME280;63139;52.018;8.552;2023-03-02T11:58:33;101298.50;;;4.55;69.58
74633;BME280;63139;52.018;8.552;2023-03-02T12:01:03;101303.31;;;4.61;69.72
74633;BME280;63139;52.018;8.552;2023-03-02T12:03:40;101290.72;;;4.66;69.31
74633;BME280;63139;52.018;8.552;2023-03-02T12:06:26;101287.66;;;4.73;69.20
74633;BME280;63139;52.018;8.552;2023-03-02T12:09:07;101281.47;;;4.74;68.64
74633;BME280;63139;52.018;8.552;2023-03-02T12:11:37;101285.31;;;4.81;68.81
74633;BME280;63139;52.018;8.552;2023-03-02T12:14:25;101288.94;;;4.91;68.58
74633;BME280;63139;52.018;8.552;2023-03-02T12:17:05;101283.13;;;4.98;68.19
74633;BME280;63139;52.018;8.552;2023-03-02T12:19:40;101268.84;;;5.02;68.08
74633;BME280;63139;52.018;8.552;2023-03-02T12:22:10;101268.13;;;5.12;67.71
74633;BME280;63139;52.018;8.552;2023-03-02T12:24:41;101265.94;;;5.18;68.15
74633;BME280;63139;52.018;8.552;2023-03-02T12:27:24;101262.94;;;5.23;67.58
74633;BME280;63139;52.018;8.552;2023-03-02T12:30:07;101265.94;;;5.29;67.71
74633;BME280;63139;52.018;8.552;2023-03-02T12:32:37;101254.28;;;5.33;67.82
74633;BME280;63139;52.018;8.552;2023-03-02T12:35:10;101250.94;;;5.31;67.34
74633;BME280;63139;52.018;8.552;2023-03-02T12:37:44;101250.56;;;5.36;67.75
74633;BME280;63139;52.018;8.552;2023-03-02T12:40:33;101242.81;;;5.34;66.73
74633;BME280;63139;52.018;8.552;2023-03-02T12:43:27;101252.13;;;5.38;66.98
74633;BME280;63139;52.018;8.552;2023-03-02T12:46:24;101239.34;;;5.34;67.21
74633;BME280;63139;52.018;8.552;2023-03-02T12:49:04;101238.41;;;5.35;66.94
74633;BME280;63139;52.018;8.552;2023-03-02T12:51:53;101229.47;;;5.37;66.78
74633;BME280;63139;52.018;8.552;2023-03-02T12:54:23;101224.94;;;5.39;66.86
74633;BME280;63139;52.018;8.552;2023-03-02T12:57:02;101217.75;;;5.41;67.08
74633;BME280;63139;52.018;8.552;2023-03-02T12:59:31;101218.38;;;5.45;67.52
74633;BME280;63139;52.018;8.552;2023-03-02T13:02:13;101206.09;;;5.45;67.02
74633;BME280;63139;52.018;8.552;2023-03-02T13:04:43;101204.03;;;5.49;67.15
74633;BME280;63139;52.018;8.552;2023-03-02T13:07:15;101203.94;;;5.51;66.86
74633;BME280;63139;52.018;8.552;2023-03-02T13:09:48;101206.22;;;5.55;66.82
74633;BME280;63139;52.018;8.552;2023-03-02T13:12:24;101212.06;;;5.59;66.87
74633;BME280;63139;52.018;8.552;2023-03-02T13:14:55;101198.56;;;5.63;67.33